createdAt,value
2017-12-13T00:03:53.802Z,0
2017-12-13T00:13:44.464Z,0
2017-12-13T00:23:44.553Z,0
2017-12-13T00:33:44.470Z,0
2017-12-13T00:43:44.582Z,0
2017-12-13T00:53:44.433Z,0
2017-12-13T01:03:44.572Z,0
2017-12-13T01:13:44.495Z,0
2017-12-13T01:23:44.526Z,0
2017-12-13T01:33:44.554Z,0
2017-12-13T01:43:44.456Z,0
2017-12-13T01:53:44.560Z,0
2017-12-13T02:03:44.503Z,0
2017-12-13T02:13:44.570Z,0
2017-12-13T02:23:44.524Z,0
2017-12-13T02:33:44.592Z,0
2017-12-13T02:43:44.554Z,0
2017-12-13T02:53:44.631Z,0
2017-12-13T03:03:44.561Z,0
2017-12-13T03:13:44.602Z,0
2017-12-13T03:23:44.602Z,0
2017-12-13T03:33:44.589Z,0
2017-12-13T03:43:44.621Z,0
2017-12-13T03:53:44.587Z,0
2017-12-13T04:03:44.687Z,0
2017-12-13T04:13:44.630Z,0
2017-12-13T04:23:44.655Z,0
2017-12-13T04:33:44.674Z,0
2017-12-13T04:43:44.707Z,0
2017-12-13T04:53:44.640Z,0
2017-12-13T05:03:44.662Z,0
2017-12-13T05:13:44.638Z,0
2017-12-13T05:23:44.643Z,0
2017-12-13T05:33:44.686Z,0
2017-12-13T05:43:44.646Z,0
2017-12-13T05:53:44.709Z,0
2017-12-13T06:03:44.684Z,0
2017-12-13T06:13:44.743Z,0
2017-12-13T06:23:44.694Z,0
2017-12-13T06:33:44.765Z,0
2017-12-13T06:43:44.703Z,0
2017-12-13T06:53:44.789Z,0
2017-12-13T07:03:44.795Z,0
2017-12-13T07:13:44.707Z,0
2017-12-13T07:23:44.752Z,0
2017-12-13T07:33:44.742Z,5
2017-12-13T07:43:44.773Z,5
2017-12-13T07:53:44.806Z,5
2017-12-13T08:03:44.796Z,15
2017-12-13T08:13:44.803Z,20
2017-12-13T08:23:44.846Z,25
2017-12-13T08:33:44.771Z,20
2017-12-13T08:43:44.759Z,10
2017-12-13T08:53:44.851Z,20
2017-12-13T09:03:44.838Z,25
2017-12-13T09:13:44.940Z,25
2017-12-13T09:23:44.848Z,35
2017-12-13T09:33:44.909Z,40
2017-12-13T09:43:45.956Z,55
2017-12-13T09:53:45.982Z,65
2017-12-13T10:03:44.986Z,55
2017-12-13T10:13:45.401Z,30
2017-12-13T10:23:45.349Z,25
2017-12-13T10:33:45.061Z,15
2017-12-13T10:43:46.219Z,25
2017-12-13T10:53:45.014Z,35
2017-12-13T11:03:44.955Z,35
2017-12-13T11:13:44.965Z,15
2017-12-13T11:23:45.012Z,20
2017-12-13T11:33:44.919Z,35
2017-12-13T11:43:44.949Z,25
2017-12-13T11:53:45.041Z,30
2017-12-13T12:03:44.996Z,20
2017-12-13T12:13:44.970Z,15
2017-12-13T12:23:45.021Z,25
2017-12-13T12:33:44.973Z,25
2017-12-13T12:43:45.068Z,20
2017-12-13T12:53:45.001Z,20
2017-12-13T13:03:45.116Z,20
2017-12-13T13:13:45.148Z,5
2017-12-13T13:23:46.002Z,10
2017-12-13T13:33:45.061Z,10
2017-12-13T13:43:45.169Z,10
2017-12-13T13:53:45.716Z,10
2017-12-13T14:03:45.068Z,5
2017-12-13T14:13:45.094Z,5
2017-12-13T14:23:45.100Z,5
2017-12-13T14:33:45.191Z,5
2017-12-13T14:43:45.117Z,0
2017-12-13T14:53:45.175Z,0
2017-12-13T15:03:45.120Z,0
2017-12-13T15:13:45.182Z,0
2017-12-13T15:23:45.135Z,0
2017-12-13T15:33:45.127Z,0
2017-12-13T15:43:45.191Z,0
2017-12-13T15:53:45.097Z,0
2017-12-13T16:03:46.170Z,0
2017-12-13T16:13:45.142Z,0
2017-12-13T16:23:45.260Z,0
2017-12-13T16:33:45.156Z,0
2017-12-13T16:43:45.244Z,0
2017-12-13T16:53:45.246Z,0
2017-12-13T17:03:45.274Z,0
2017-12-13T17:13:45.364Z,0
2017-12-13T17:23:45.295Z,0
2017-12-13T17:33:45.192Z,0
2017-12-13T17:43:45.335Z,0
2017-12-13T17:53:45.330Z,0
2017-12-13T18:03:45.244Z,0
2017-12-13T18:13:45.298Z,0
2017-12-13T18:23:45.314Z,0
2017-12-13T18:33:45.379Z,0
2017-12-13T18:43:45.308Z,0
2017-12-13T18:53:45.358Z,0
2017-12-13T19:03:45.304Z,0
2017-12-13T19:13:45.408Z,0
2017-12-13T19:23:45.383Z,0
2017-12-13T19:33:45.286Z,0
2017-12-13T19:43:45.334Z,0
2017-12-13T19:53:45.489Z,0
2017-12-13T20:03:45.408Z,0
2017-12-13T20:13:45.451Z,0
2017-12-13T20:23:45.381Z,0
2017-12-13T20:33:45.393Z,0
2017-12-13T20:43:45.375Z,0
2017-12-13T20:53:45.368Z,0
2017-12-13T21:03:45.386Z,0
2017-12-13T21:13:45.424Z,0
2017-12-13T21:23:45.422Z,0
2017-12-13T21:33:46.446Z,0
2017-12-13T21:43:45.452Z,0
2017-12-13T21:53:45.355Z,0
2017-12-13T22:03:45.478Z,0
2017-12-13T22:13:45.596Z,0
2017-12-13T22:23:45.557Z,0
2017-12-13T22:33:45.433Z,0
2017-12-13T22:43:45.741Z,0
2017-12-13T22:53:45.493Z,0
2017-12-13T23:03:45.897Z,0
2017-12-13T23:13:45.480Z,0
2017-12-13T23:23:45.605Z,0
2017-12-13T23:33:45.567Z,0
2017-12-13T23:43:45.610Z,0
2017-12-13T23:53:45.655Z,0
